sensor_id;sensor_type;location;lat;lon;timestamp;pressure;altitude;pressure_sealevel;temperature;humidity
61136;BME280;47021;51.340;12.432;2023-03-01T00:00:49;101584.06;;;2.83;57.04
61136;BME280;47021;51.340;12.432;2023-03-01T00:03:15;101579.72;;;2.85;56.79
61136;BME280;47021;51.340;12.432;2023-03-01T00:05:46;101584.03;;;2.85;56.67
61136;BME280;47021;51.340;12.432;2023-03-01T00:08:12;101588.09;;;2.63;56.80
61136;BME280;47021;51.340;12.432;2023-03-01T00:10:37;101577.38;;;2.46;57.30
61136;BME280;47021;51.340;12.432;2023-03-01T00:13:02;101579.25;;;2.71;57.18
61136;BME280;47021;51.340;12.432;2023-03-01T00:15:29;101579.19;;;2.74;56.87
61136;BME280;47021;51.340;12.432;2023-03-01T00:17:56;101577.66;;;2.67;56.79
61136;BME280;47021;51.340;12.432;2023-03-01T00:20:21;101569.91;;;2.67;57.04
61136;BME280;47021;51.340;12.432;2023-03-01T00:22:46;101569.00;;;2.68;57.30
61136;BME280;47021;51.340;12.432;2023-03-01T00:25:17;101575.94;;;2.66;57.45
61136;BME280;47021;51.340;12.432;2023-03-01T00:27:43;101576.88;;;2.64;57.08
61136;BME280;47021;51.340;12.432;2023-03-01T00:30:15;101580.34;;;2.31;58.71
61136;BME280;47021;51.340;12.432;2023-03-01T00:32:52;101580.88;;;2.09;59.56
61136;BME280;47021;51.340;12.432;2023-03-01T00:35:21;101574.41;;;2.29;58.73
61136;BME280;47021;51.340;12.432;2023-03-01T00:38:04;101566.00;;;2.21;58.71
61136;BME280;47021;51.340;12.432;2023-03-01T00:40:30;101567.72;;;2.22;59.01
61136;BME280;47021;51.340;12.432;2023-03-01T00:42:56;101565.66;;;2.34;58.66
61136;BME280;47021;51.340;12.432;2023-03-01T00:48:06;101546.44;;;2.46;58.40
61136;BME280;47021;51.340;12.432;2023-03-01T00:50:31;101543.06;;;2.44;58.29
61136;BME280;47021;51.340;12.432;2023-03-01T00:52:56;101545.84;;;2.36;57.97
61136;BME280;47021;51.340;12.432;2023-03-01T00:55:21;101543.25;;;2.36;58.39
61136;BME280;47021;51.340;12.432;2023-03-01T00:57:48;101548.88;;;2.18;58.64
61136;BME280;47021;51.340;12.432;2023-03-01T01:03:31;101556.19;;;1.67;60.49
61136;BME280;47021;51.340;12.432;2023-03-01T01:05:58;101554.31;;;1.74;59.82
61136;BME280;47021;51.340;12.432;2023-03-01T01:08:23;101552.84;;;1.64;60.76
61136;BME280;47021;51.340;12.432;2023-03-01T01:11:01;101559.22;;;1.48;61.46
61136;BME280;47021;51.340;12.432;2023-03-01T01:13:34;101552.66;;;1.71;60.26
61136;BME280;47021;51.340;12.432;2023-03-01T01:16:00;101557.19;;;1.95;59.86
61136;BME280;47021;51.340;12.432;2023-03-01T01:18:28;101538.53;;;1.52;61.09
61136;BME280;47021;51.340;12.432;2023-03-01T01:21:28;101544.09;;;1.34;61.65
61136;BME280;47021;51.340;12.432;2023-03-01T01:23:54;101530.25;;;1.38;61.49
61136;BME280;47021;51.340;12.432;2023-03-01T01:26:32;101529.34;;;1.40;60.97
61136;BME280;47021;51.340;12.432;2023-03-01T01:28:59;101529.13;;;1.50;60.64
61136;BME280;47021;51.340;12.432;2023-03-01T01:31:30;101531.25;;;1.69;59.88
61136;BME280;47021;51.340;12.432;2023-03-01T01:39:23;101523.88;;;1.56;61.67
61136;BME280;47021;51.340;12.432;2023-03-01T01:44:46;101527.69;;;1.39;62.08
61136;BME280;47021;51.340;12.432;2023-03-01T01:47:23;101525.16;;;1.36;61.87
61136;BME280;47021;51.340;12.432;2023-03-01T01:49:51;101517.38;;;1.39;61.67
61136;BME280;47021;51.340;12.432;2023-03-01T01:52:31;101506.78;;;1.52;61.20
61136;BME280;47021;51.340;12.432;2023-03-01T01:55:07;101506.06;;;1.47;61.27
61136;BME280;47021;51.340;12.432;2023-03-01T01:57:36;101516.47;;;1.42;61.31
61136;BME280;47021;51.340;12.432;2023-03-01T02:00:17;101512.94;;;1.46;61.36
61136;BME280;47021;51.340;12.432;2023-03-01T02:02:43;101508.56;;;1.50;60.57
61136;BME280;47021;51.340;12.432;2023-03-01T02:08:04;101501.41;;;1.61;60.69
61136;BME280;47021;51.340;12.432;2023-03-01T02:10:31;101496.72;;;1.42;60.50
61136;BME280;47021;51.340;12.432;2023-03-01T02:13:14;101501.53;;;1.19;61.38
61136;BME280;47021;51.340;12.432;2023-03-01T02:15:40;101502.28;;;1.24;61.28
61136;BME280;47021;51.340;12.432;2023-03-01T02:18:05;101496.22;;;1.27;61.54
61136;BME280;47021;51.340;12.432;2023-03-01T02:20:44;101488.34;;;1.34;61.30
61136;BME280;47021;51.340;12.432;2023-03-01T02:25:58;101491.28;;;1.55;60.71
61136;BME280;47021;51.340;12.432;2023-03-01T02:31:00;101488.34;;;1.34;59.80
61136;BME280;47021;51.340;12.432;2023-03-01T02:33:33;101497.09;;;1.27;60.58
61136;BME280;47021;51.340;12.432;2023-03-01T02:36:06;101499.81;;;1.21;60.28
61136;BME280;47021;51.340;12.432;2023-03-01T02:38:32;101499.13;;;1.13;61.14
61136;BME280;47021;51.340;12.432;2023-03-01T02:40:58;101497.03;;;1.30;60.81
61136;BME280;47021;51.340;12.432;2023-03-01T02:43:32;101503.09;;;1.26;61.16
61136;BME280;47021;51.340;12.432;2023-03-01T02:46:06;101506.97;;;1.07;61.18
61136;BME280;47021;51.340;12.432;2023-03-01T02:48:41;101502.91;;;0.97;61.77
61136;BME280;47021;51.340;12.432;2023-03-01T02:53:53;101504.25;;;1.13;61.62
61136;BME280;47021;51.340;12.432;2023-03-01T02:56:30;101501.84;;;1.06;61.38
61136;BME280;47021;51.340;12.432;2023-03-01T03:01:39;101508.56;;;0.73;62.04
61136;BME280;47021;51.340;12.432;2023-03-01T03:04:07;101507.91;;;0.63;62.16
61136;BME280;47021;51.340;12.432;2023-03-01T03:09:22;101499.47;;;0.98;61.25
61136;BME280;47021;51.340;12.432;2023-03-01T03:12:02;101494.88;;;1.11;60.45
61136;BME280;47021;51.340;12.432;2023-03-01T03:14:39;101489.44;;;1.24;60.43
61136;BME280;47021;51.340;12.432;2023-03-01T03:17:04;101473.94;;;1.27;60.18
61136;BME280;47021;51.340;12.432;2023-03-01T03:19:30;101477.34;;;1.28;59.93
61136;BME280;47021;51.340;12.432;2023-03-01T03:21:58;101473.13;;;1.25;59.69
61136;BME280;47021;51.340;12.432;2023-03-01T03:24:31;101476.50;;;1.27;59.88
61136;BME280;47021;51.340;12.432;2023-03-01T03:27:02;101474.63;;;0.97;60.46
61136;BME280;47021;51.340;12.432;2023-03-01T03:29:31;101479.31;;;0.80;61.07
61136;BME280;47021;51.340;12.432;2023-03-01T03:31:56;101484.50;;;0.77;60.89
61136;BME280;47021;51.340;12.432;2023-03-01T03:34:32;101481.16;;;0.72;61.62
61136;BME280;47021;51.340;12.432;2023-03-01T03:37:15;101472.09;;;0.94;61.07
61136;BME280;47021;51.340;12.432;2023-03-01T03:42:38;101461.31;;;0.80;61.58
61136;BME280;47021;51.340;12.432;2023-03-01T03:47:55;101462.75;;;0.52;62.72
61136;BME280;47021;51.340;12.432;2023-03-01T03:50:23;101464.47;;;0.51;63.43
61136;BME280;47021;51.340;12.432;2023-03-01T03:53:07;101456.63;;;0.57;63.34
61136;BME280;47021;51.340;12.432;2023-03-01T03:55:39;101446.50;;;0.91;62.13
61136;BME280;47021;51.340;12.432;2023-03-01T03:58:12;101446.50;;;0.90;61.55
61136;BME280;47021;51.340;12.432;2023-03-01T04:03:24;101459.94;;;0.64;62.30
61136;BME280;47021;51.340;12.432;2023-03-01T04:05:56;101455.44;;;0.32;62.83
61136;BME280;47021;51.340;12.432;2023-03-01T04:11:06;101460.19;;;0.52;62.76
61136;BME280;47021;51.340;12.432;2023-03-01T04:16:25;101461.25;;;0.82;61.41
61136;BME280;47021;51.340;12.432;2023-03-01T04:22:00;101457.09;;;0.76;61.66
61136;BME280;47021;51.340;12.432;2023-03-01T04:24:34;101452.78;;;0.77;61.72
61136;BME280;47021;51.340;12.432;2023-03-01T04:27:00;101452.16;;;0.67;61.71
61136;BME280;47021;51.340;12.432;2023-03-01T04:29:31;101448.66;;;0.71;61.56
61136;BME280;47021;51.340;12.432;2023-03-01T04:34:42;101446.53;;;0.88;61.23
61136;BME280;47021;51.340;12.432;2023-03-01T04:37:15;101445.13;;;0.75;60.53
61136;BME280;47021;51.340;12.432;2023-03-01T04:39:41;101452.47;;;0.52;61.63
61136;BME280;47021;51.340;12.432;2023-03-01T04:42:11;101458.09;;;0.69;61.12
61136;BME280;47021;51.340;12.432;2023-03-01T04:44:44;101451.38;;;0.62;61.17
61136;BME280;47021;51.340;12.432;2023-03-01T04:47:09;101455.66;;;0.63;61.46
61136;BME280;47021;51.340;12.432;2023-03-01T04:49:37;101453.72;;;0.74;61.57
61136;BME280;47021;51.340;12.432;2023-03-01T04:52:08;101451.78;;;0.44;61.95
61136;BME280;47021;51.340;12.432;2023-03-01T04:57:21;101453.97;;;0.62;61.58
61136;BME280;47021;51.340;12.432;2023-03-01T04:59:54;101457.22;;;0.70;61.34
61136;BME280;47021;51.340;12.432;2023-03-01T05:02:19;101446.34;;;0.57;61.04
61136;BME280;47021;51.340;12.432;2023-03-01T05:04:44;101445.44;;;0.61;60.59
61136;BME280;47021;51.340;12.432;2023-03-01T05:07:10;101451.28;;;0.27;61.81
61136;BME280;47021;51.340;12.432;2023-03-01T05:09:36;101457.19;;;0.32;61.48
61136;BME280;47021;51.340;12.432;2023-03-01T05:12:11;101450.56;;;0.19;61.88
61136;BME280;47021;51.340;12.432;2023-03-01T05:14:36;101447.00;;;0.27;62.32
61136;BME280;47021;51.340;12.432;2023-03-01T05:17:19;101448.19;;;0.52;61.54
61136;BME280;47021;51.340;12.432;2023-03-01T05:19:47;101449.00;;;0.54;61.34
61136;BME280;47021;51.340;12.432;2023-03-01T05:22:19;101453.91;;;0.65;60.80
61136;BME280;47021;51.340;12.432;2023-03-01T05:27:38;101448.91;;;0.57;60.67
61136;BME280;47021;51.340;12.432;2023-03-01T05:30:11;101444.91;;;0.44;61.00
61136;BME280;47021;51.340;12.432;2023-03-01T05:32:38;101449.03;;;0.10;62.06
61136;BME280;47021;51.340;12.432;2023-03-01T05:41:04;101433.78;;;0.44;61.24
61136;BME280;47021;51.340;12.432;2023-03-01T05:43:38;101445.50;;;0.16;62.14
61136;BME280;47021;51.340;12.432;2023-03-01T05:46:10;101448.47;;;0.39;61.88
61136;BME280;47021;51.340;12.432;2023-03-01T05:48:35;101446.38;;;0.56;61.45
61136;BME280;47021;51.340;12.432;2023-03-01T05:51:03;101444.25;;;0.36;61.26
61136;BME280;47021;51.340;12.432;2023-03-01T05:59:04;101457.09;;;0.36;61.26
61136;BME280;47021;51.340;12.432;2023-03-01T06:01:30;101457.75;;;0.44;61.27
61136;BME280;47021;51.340;12.432;2023-03-01T06:04:16;101457.47;;;0.59;61.18
61136;BME280;47021;51.340;12.432;2023-03-01T06:06:41;101461.41;;;0.34;61.40
61136;BME280;47021;51.340;12.432;2023-03-01T06:09:13;101459.47;;;0.45;61.33
61136;BME280;47021;51.340;12.432;2023-03-01T06:11:43;101465.31;;;0.52;61.35
61136;BME280;47021;51.340;12.432;2023-03-01T06:19:39;101462.31;;;0.73;60.85
61136;BME280;47021;51.340;12.432;2023-03-01T06:22:06;101458.78;;;0.77;60.88
61136;BME280;47021;51.340;12.432;2023-03-01T06:24:34;101460.41;;;0.81;60.93
61136;BME280;47021;51.340;12.432;2023-03-01T06:27:00;101461.81;;;0.94;60.36
61136;BME280;47021;51.340;12.432;2023-03-01T06:32:21;101471.69;;;0.76;60.34
61136;BME280;47021;51.340;12.432;2023-03-01T06:34:52;101467.94;;;0.49;61.68
61136;BME280;47021;51.340;12.432;2023-03-01T06:37:18;101461.31;;;0.80;61.34
61136;BME280;47021;51.340;12.432;2023-03-01T06:39:50;101458.34;;;0.97;60.94
61136;BME280;47021;51.340;12.432;2023-03-01T06:42:15;101456.19;;;1.15;60.57
61136;BME280;47021;51.340;12.432;2023-03-01T06:44:46;101457.22;;;1.08;61.05
61136;BME280;47021;51.340;12.432;2023-03-01T06:47:11;101458.13;;;1.07;61.20
61136;BME280;47021;51.340;12.432;2023-03-01T06:49:55;101442.09;;;1.31;60.70
61136;BME280;47021;51.340;12.432;2023-03-01T06:52:21;101450.34;;;1.46;60.31
61136;BME280;47021;51.340;12.432;2023-03-01T06:54:48;101446.16;;;1.41;60.27
61136;BME280;47021;51.340;12.432;2023-03-01T06:57:14;101451.72;;;1.59;59.92
61136;BME280;47021;51.340;12.432;2023-03-01T06:59:47;101448.34;;;1.57;60.00
61136;BME280;47021;51.340;12.432;2023-03-01T07:02:13;101460.44;;;1.53;60.54
61136;BME280;47021;51.340;12.432;2023-03-01T07:04:41;101454.63;;;1.79;60.32
61136;BME280;47021;51.340;12.432;2023-03-01T07:07:14;101446.09;;;1.78;60.45
61136;BME280;47021;51.340;12.432;2023-03-01T07:09:39;101446.63;;;1.89;60.51
61136;BME280;47021;51.340;12.432;2023-03-01T07:12:12;101448.59;;;2.12;59.55
61136;BME280;47021;51.340;12.432;2023-03-01T07:14:38;101448.72;;;2.07;59.38
61136;BME280;47021;51.340;12.432;2023-03-01T07:17:03;101445.59;;;2.27;59.17
61136;BME280;47021;51.340;12.432;2023-03-01T07:19:29;101439.03;;;2.46;59.02
61136;BME280;47021;51.340;12.432;2023-03-01T07:21:55;101443.19;;;2.52;58.47
61136;BME280;47021;51.340;12.432;2023-03-01T07:24:21;101439.91;;;2.45;58.54
61136;BME280;47021;51.340;12.432;2023-03-01T07:26:51;101437.50;;;2.68;58.52
61136;BME280;47021;51.340;12.432;2023-03-01T07:29:17;101429.22;;;2.86;58.21
61136;BME280;47021;51.340;12.432;2023-03-01T07:31:45;101420.94;;;3.05;57.59
61136;BME280;47021;51.340;12.432;2023-03-01T07:34:10;101431.13;;;3.09;57.07
61136;BME280;47021;51.340;12.432;2023-03-01T07:36:42;101426.47;;;2.93;57.62
61136;BME280;47021;51.340;12.432;2023-03-01T07:39:07;101430.94;;;2.88;58.33
61136;BME280;47021;51.340;12.432;2023-03-01T07:41:50;101421.75;;;3.07;58.08
61136;BME280;47021;51.340;12.432;2023-03-01T07:44:16;101426.00;;;3.34;57.76
61136;BME280;47021;51.340;12.432;2023-03-01T07:46:41;101429.19;;;3.16;58.00
61136;BME280;47021;51.340;12.432;2023-03-01T07:49:09;101426.50;;;3.45;57.67
61136;BME280;47021;51.340;12.432;2023-03-01T07:51:35;101428.75;;;3.29;57.87
61136;BME280;47021;51.340;12.432;2023-03-01T07:54:00;101428.97;;;3.22;57.87
61136;BME280;47021;51.340;12.432;2023-03-01T07:56:27;101430.03;;;3.42;57.88
61136;BME280;47021;51.340;12.432;2023-03-01T07:58:52;101432.91;;;3.84;56.81
61136;BME280;47021;51.340;12.432;2023-03-01T08:01:23;101423.44;;;3.85;56.89
61136;BME280;47021;51.340;12.432;2023-03-01T08:03:48;101425.22;;;3.83;57.04
61136;BME280;47021;51.340;12.432;2023-03-01T08:06:28;101420.84;;;3.85;57.42
61136;BME280;47021;51.340;12.432;2023-03-01T08:09:00;101428.50;;;3.37;58.21
61136;BME280;47021;51.340;12.432;2023-03-01T08:11:25;101424.69;;;3.98;56.97
61136;BME280;47021;51.340;12.432;2023-03-01T08:13:57;101423.38;;;3.86;56.95
61136;BME280;47021;51.340;12.432;2023-03-01T08:16:25;101414.50;;;3.93;56.92
61136;BME280;47021;51.340;12.432;2023-03-01T08:19:09;101417.34;;;3.86;56.49
61136;BME280;47021;51.340;12.432;2023-03-01T08:24:10;101424.78;;;3.95;56.86
61136;BME280;47021;51.340;12.432;2023-03-01T08:26:42;101415.59;;;4.11;56.54
61136;BME280;47021;51.340;12.432;2023-03-01T08:29:10;101420.16;;;4.51;55.44
61136;BME280;47021;51.340;12.432;2023-03-01T08:31:36;101415.38;;;3.94;55.98
61136;BME280;47021;51.340;12.432;2023-03-01T08:34:10;101407.75;;;4.60;55.23
61136;BME280;47021;51.340;12.432;2023-03-01T08:36:44;101414.66;;;4.60;55.16
61136;BME280;47021;51.340;12.432;2023-03-01T08:39:13;101409.06;;;4.47;56.43
61136;BME280;47021;51.340;12.432;2023-03-01T08:41:41;101400.75;;;4.84;56.15
61136;BME280;47021;51.340;12.432;2023-03-01T08:44:08;101400.47;;;4.91;55.82
61136;BME280;47021;51.340;12.432;2023-03-01T08:46:36;101399.81;;;4.86;55.88
61136;BME280;47021;51.340;12.432;2023-03-01T08:49:06;101390.78;;;4.96;55.98
61136;BME280;47021;51.340;12.432;2023-03-01T08:51:34;101396.94;;;5.16;55.48
61136;BME280;47021;51.340;12.432;2023-03-01T08:54:00;101391.81;;;4.92;55.76
61136;BME280;47021;51.340;12.432;2023-03-01T08:56:26;101394.81;;;5.04;55.25
61136;BME280;47021;51.340;12.432;2023-03-01T08:58:52;101397.59;;;4.99;55.84
61136;BME280;47021;51.340;12.432;2023-03-01T09:01:19;101391.75;;;5.16;55.29
61136;BME280;47021;51.340;12.432;2023-03-01T09:03:46;101391.97;;;5.31;55.11
61136;BME280;47021;51.340;12.432;2023-03-01T09:06:11;101386.44;;;5.39;54.76
61136;BME280;47021;51.340;12.432;2023-03-01T09:08:46;101385.41;;;5.83;53.34
61136;BME280;47021;51.340;12.432;2023-03-01T09:11:30;101385.09;;;5.50;54.23
61136;BME280;47021;51.340;12.432;2023-03-01T09:14:06;101380.44;;;5.58;53.85
61136;BME280;47021;51.340;12.432;2023-03-01T09:16:31;101375.09;;;5.21;53.87
61136;BME280;47021;51.340;12.432;2023-03-01T09:18:56;101377.00;;;4.96;55.13
61136;BME280;47021;51.340;12.432;2023-03-01T09:21:22;101374.22;;;5.42;54.50
61136;BME280;47021;51.340;12.432;2023-03-01T09:23:56;101373.88;;;5.30;53.92
61136;BME280;47021;51.340;12.432;2023-03-01T09:26:36;101375.50;;;5.52;53.29
61136;BME280;47021;51.340;12.432;2023-03-01T09:29:03;101375.84;;;5.65;53.05
61136;BME280;47021;51.340;12.432;2023-03-01T09:31:29;101379.13;;;5.68;53.06
61136;BME280;47021;51.340;12.432;2023-03-01T09:33:56;101374.34;;;4.76;55.36
61136;BME280;47021;51.340;12.432;2023-03-01T09:36:23;101371.16;;;5.13;54.21
61136;BME280;47021;51.340;12.432;2023-03-01T09:39:06;101365.25;;;5.91;53.38
61136;BME280;47021;51.340;12.432;2023-03-01T09:41:36;101368.53;;;5.75;52.92
61136;BME280;47021;51.340;12.432;2023-03-01T09:44:10;101365.78;;;5.78;52.60
61136;BME280;47021;51.340;12.432;2023-03-01T09:54:54;101352.34;;;6.08;51.45
61136;BME280;47021;51.340;12.432;2023-03-01T09:57:27;101358.44;;;5.07;53.96
61136;BME280;47021;51.340;12.432;2023-03-01T10:00:13;101348.75;;;5.92;52.67
61136;BME280;47021;51.340;12.432;2023-03-01T10:02:42;101354.84;;;6.30;51.75
61136;BME280;47021;51.340;12.432;2023-03-01T10:05:14;101352.78;;;6.18;53.52
61136;BME280;47021;51.340;12.432;2023-03-01T10:10:27;101358.00;;;5.78;53.64
61136;BME280;47021;51.340;12.432;2023-03-01T10:12:54;101352.97;;;5.95;53.03
61136;BME280;47021;51.340;12.432;2023-03-01T10:15:27;101351.41;;;6.29;51.53
61136;BME280;47021;51.340;12.432;2023-03-01T10:18:06;101349.13;;;6.22;50.89
61136;BME280;47021;51.340;12.432;2023-03-01T10:23:04;101342.97;;;6.06;49.30
61136;BME280;47021;51.340;12.432;2023-03-01T10:28:25;101342.91;;;6.26;49.20
61136;BME280;47021;51.340;12.432;2023-03-01T10:31:04;101339.00;;;6.72;49.29
61136;BME280;47021;51.340;12.432;2023-03-01T10:33:41;101335.72;;;6.68;49.14
61136;BME280;47021;51.340;12.432;2023-03-01T10:36:07;101345.97;;;6.71;49.11
61136;BME280;47021;51.340;12.432;2023-03-01T10:41:16;101343.06;;;6.77;47.90
61136;BME280;47021;51.340;12.432;2023-03-01T10:43:59;101340.50;;;7.11;47.77
61136;BME280;47021;51.340;12.432;2023-03-01T10:46:40;101334.16;;;7.00;48.09
61136;BME280;47021;51.340;12.432;2023-03-01T10:49:22;101329.28;;;6.94;47.45
61136;BME280;47021;51.340;12.432;2023-03-01T10:52:11;101328.28;;;7.13;47.59
61136;BME280;47021;51.340;12.432;2023-03-01T10:55:02;101319.50;;;7.50;47.83
61136;BME280;47021;51.340;12.432;2023-03-01T11:00:18;101323.41;;;7.07;47.43
61136;BME280;47021;51.340;12.432;2023-03-01T11:02:47;101326.94;;;6.71;48.22
61136;BME280;47021;51.340;12.432;2023-03-01T11:05:22;101323.16;;;7.29;48.19
61136;BME280;47021;51.340;12.432;2023-03-01T11:07:55;101328.63;;;7.74;47.37
61136;BME280;47021;51.340;12.432;2023-03-01T11:10:24;101334.19;;;7.51;48.23
61136;BME280;47021;51.340;12.432;2023-03-01T11:12:53;101322.78;;;7.37;48.69
61136;BME280;47021;51.340;12.432;2023-03-01T11:15:34;101321.09;;;7.36;49.16
61136;BME280;47021;51.340;12.432;2023-03-01T11:18:00;101316.13;;;7.31;49.66
61136;BME280;47021;51.340;12.432;2023-03-01T11:20:31;101313.25;;;7.03;51.02
61136;BME280;47021;51.340;12.432;2023-03-01T11:23:04;101310.47;;;7.06;50.04
61136;BME280;47021;51.340;12.432;2023-03-01T11:25:36;101316.72;;;6.68;50.87
61136;BME280;47021;51.340;12.432;2023-03-01T11:28:16;101320.00;;;6.71;51.00
61136;BME280;47021;51.340;12.432;2023-03-01T11:30:49;101316.53;;;6.89;51.23
61136;BME280;47021;51.340;12.432;2023-03-01T11:38:45;101311.19;;;7.44;50.65
61136;BME280;47021;51.340;12.432;2023-03-01T11:44:14;101303.72;;;7.03;50.16
61136;BME280;47021;51.340;12.432;2023-03-01T11:47:03;101299.63;;;7.49;49.58
61136;BME280;47021;51.340;12.432;2023-03-01T11:54:46;101284.94;;;7.65;49.16
61136;BME280;47021;51.340;12.432;2023-03-01T11:57:20;101282.78;;;7.56;49.14
61136;BME280;47021;51.340;12.432;2023-03-01T12:13:22;101272.84;;;7.64;47.25
61136;BME280;47021;51.340;12.432;2023-03-01T12:26:36;101242.09;;;8.66;44.37
61136;BME280;47021;51.340;12.432;2023-03-01T12:31:58;101242.78;;;7.92;46.10
61136;BME280;47021;51.340;12.432;2023-03-01T12:50:14;101220.69;;;8.14;45.34
61136;BME280;47021;51.340;12.432;2023-03-01T12:52:48;101213.34;;;8.68;44.61
61136;BME280;47021;51.340;12.432;2023-03-01T12:55:34;101206.28;;;9.13;44.50
61136;BME280;47021;51.340;12.432;2023-03-01T12:58:03;101205.69;;;8.35;45.27
61136;BME280;47021;51.340;12.432;2023-03-01T13:00:35;101197.63;;;8.39;45.39
61136;BME280;47021;51.340;12.432;2023-03-01T13:11:11;101178.66;;;8.67;44.86
61136;BME280;47021;51.340;12.432;2023-03-01T13:13:40;101177.81;;;8.67;43.52
61136;BME280;47021;51.340;12.432;2023-03-01T13:18:49;101189.66;;;8.72;44.28
61136;BME280;47021;51.340;12.432;2023-03-01T13:21:36;101193.50;;;8.51;43.96
61136;BME280;47021;51.340;12.432;2023-03-01T13:24:02;101196.50;;;9.03;42.70
61136;BME280;47021;51.340;12.432;2023-03-01T13:26:27;101192.97;;;9.04;44.16
61136;BME280;47021;51.340;12.432;2023-03-01T13:33:53;101186.47;;;9.25;44.05
61136;BME280;47021;51.340;12.432;2023-03-01T13:38:57;101179.50;;;9.26;42.03
61136;BME280;47021;51.340;12.432;2023-03-01T13:52:59;101165.97;;;9.88;41.07
61136;BME280;47021;51.340;12.432;2023-03-01T13:55:00;101157.78;;;9.94;40.32
61136;BME280;47021;51.340;12.432;2023-03-01T13:57:32;101163.16;;;9.78;39.84
61136;BME280;47021;51.340;12.432;2023-03-01T13:59:58;101163.56;;;9.44;40.79
61136;BME280;47021;51.340;12.432;2023-03-01T14:02:24;101158.50;;;9.69;40.84
61136;BME280;47021;51.340;12.432;2023-03-01T14:04:59;101159.75;;;9.90;40.28
61136;BME280;47021;51.340;12.432;2023-03-01T14:07:26;101162.06;;;9.54;40.79
61136;BME280;47021;51.340;12.432;2023-03-01T14:09:52;101152.91;;;9.61;40.44
61136;BME280;47021;51.340;12.432;2023-03-01T14:20:46;101145.41;;;10.24;37.76
61136;BME280;47021;51.340;12.432;2023-03-01T14:23:21;101139.88;;;9.61;37.89
61136;BME280;47021;51.340;12.432;2023-03-01T14:28:37;101123.50;;;9.86;37.78
61136;BME280;47021;51.340;12.432;2023-03-01T14:31:29;101126.06;;;9.33;36.64
61136;BME280;47021;51.340;12.432;2023-03-01T14:36:39;101125.41;;;9.43;37.00
61136;BME280;47021;51.340;12.432;2023-03-01T14:39:23;101124.09;;;9.36;36.91
61136;BME280;47021;51.340;12.432;2023-03-01T14:41:56;101116.53;;;9.86;37.21
61136;BME280;47021;51.340;12.432;2023-03-01T14:46:55;101109.19;;;10.20;36.58
61136;BME280;47021;51.340;12.432;2023-03-01T14:49:24;101102.66;;;9.86;36.75
61136;BME280;47021;51.340;12.432;2023-03-01T14:51:54;101104.56;;;9.15;37.46
61136;BME280;47021;51.340;12.432;2023-03-01T14:54:23;101090.22;;;9.63;36.87
61136;BME280;47021;51.340;12.432;2023-03-01T14:56:51;101094.59;;;9.36;36.80
61136;BME280;47021;51.340;12.432;2023-03-01T14:59:19;101099.25;;;9.31;37.05
61136;BME280;47021;51.340;12.432;2023-03-01T15:01:57;101097.16;;;9.50;37.13
61136;BME280;47021;51.340;12.432;2023-03-01T15:04:23;101090.81;;;9.54;37.07
61136;BME280;47021;51.340;12.432;2023-03-01T15:06:52;101092.53;;;9.41;36.74
61136;BME280;47021;51.340;12.432;2023-03-01T15:09:21;101089.88;;;9.69;37.06
61136;BME280;47021;51.340;12.432;2023-03-01T15:11:54;101095.13;;;10.08;37.50
61136;BME280;47021;51.340;12.432;2023-03-01T15:14:27;101094.25;;;10.22;37.40
61136;BME280;47021;51.340;12.432;2023-03-01T15:16:55;101086.31;;;9.97;37.39
61136;BME280;47021;51.340;12.432;2023-03-01T15:19:21;101092.06;;;9.75;37.19
61136;BME280;47021;51.340;12.432;2023-03-01T15:21:51;101090.31;;;9.75;36.62
61136;BME280;47021;51.340;12.432;2023-03-01T15:29:31;101086.72;;;10.17;35.56
61136;BME280;47021;51.340;12.432;2023-03-01T15:32:23;101084.00;;;9.65;37.19
61136;BME280;47021;51.340;12.432;2023-03-01T15:34:50;101082.97;;;9.94;37.14
61136;BME280;47021;51.340;12.432;2023-03-01T15:42:42;101092.56;;;9.67;36.80
61136;BME280;47021;51.340;12.432;2023-03-01T15:47:35;101089.44;;;9.62;36.99
61136;BME280;47021;51.340;12.432;2023-03-01T15:52:46;101090.63;;;9.16;37.23
61136;BME280;47021;51.340;12.432;2023-03-01T15:55:29;101093.09;;;9.32;37.13
61136;BME280;47021;51.340;12.432;2023-03-01T15:58:13;101091.81;;;9.24;37.26
61136;BME280;47021;51.340;12.432;2023-03-01T16:00:47;101080.84;;;9.60;37.78
61136;BME280;47021;51.340;12.432;2023-03-01T16:03:15;101090.22;;;9.22;37.14
61136;BME280;47021;51.340;12.432;2023-03-01T16:05:41;101088.84;;;8.74;38.24
61136;BME280;47021;51.340;12.432;2023-03-01T16:08:06;101083.66;;;8.88;38.51
61136;BME280;47021;51.340;12.432;2023-03-01T16:10:37;101093.97;;;8.90;38.26
61136;BME280;47021;51.340;12.432;2023-03-01T16:13:04;101098.81;;;8.82;38.50
61136;BME280;47021;51.340;12.432;2023-03-01T16:15:29;101095.81;;;8.45;40.01
61136;BME280;47021;51.340;12.432;2023-03-01T16:17:55;101090.97;;;8.53;39.01
61136;BME280;47021;51.340;12.432;2023-03-01T16:20:21;101089.88;;;9.00;38.83
61136;BME280;47021;51.340;12.432;2023-03-01T16:22:53;101088.06;;;9.43;38.08
61136;BME280;47021;51.340;12.432;2023-03-01T16:25:20;101085.88;;;8.66;39.41
61136;BME280;47021;51.340;12.432;2023-03-01T16:27:46;101094.34;;;9.12;38.61
61136;BME280;47021;51.340;12.432;2023-03-01T16:30:12;101093.66;;;8.52;39.14
61136;BME280;47021;51.340;12.432;2023-03-01T16:32:41;101095.88;;;8.44;40.01
61136;BME280;47021;51.340;12.432;2023-03-01T16:35:07;101092.44;;;8.58;39.82
61136;BME280;47021;51.340;12.432;2023-03-01T16:37:33;101093.66;;;8.52;40.17
61136;BME280;47021;51.340;12.432;2023-03-01T16:39:59;101100.81;;;8.48;40.07
61136;BME280;47021;51.340;12.432;2023-03-01T16:45:17;101102.44;;;8.79;40.00
61136;BME280;47021;51.340;12.432;2023-03-01T16:47:54;101089.97;;;8.70;40.17